sensor_id;sensor_type;location;lat;lon;timestamp;pressure;altitude;pressure_sealevel;temperature;humidity
21236;BME280;10775;42.678;26.324;2022-12-18T00:01:18;99262.16;;;12.93;88.81
21236;BME280;10775;42.678;26.324;2022-12-18T00:03:44;99277.13;;;12.90;88.49
21236;BME280;10775;42.678;26.324;2022-12-18T00:06:11;99261.44;;;12.85;87.86
21236;BME280;10775;42.678;26.324;2022-12-18T00:08:37;99282.56;;;12.79;88.48
21236;BME280;10775;42.678;26.324;2022-12-18T00:11:04;99276.50;;;12.77;88.10
21236;BME280;10775;42.678;26.324;2022-12-18T00:13:30;99274.84;;;12.71;88.29
21236;BME280;10775;42.678;26.324;2022-12-18T00:16:05;99282.81;;;12.65;87.79
21236;BME280;10775;42.678;26.324;2022-12-18T00:18:31;99296.84;;;12.62;88.10
21236;BME280;10775;42.678;26.324;2022-12-18T00:21:02;99309.13;;;12.62;88.44
21236;BME280;10775;42.678;26.324;2022-12-18T00:23:29;99296.84;;;12.62;88.10
21236;BME280;10775;42.678;26.324;2022-12-18T00:25:59;99305.63;;;12.61;88.40
21236;BME280;10775;42.678;26.324;2022-12-18T00:28:25;99313.44;;;12.65;88.22
21236;BME280;10775;42.678;26.324;2022-12-18T00:30:50;99319.53;;;12.67;89.63
21236;BME280;10775;42.678;26.324;2022-12-18T00:33:17;99319.50;;;12.68;91.16
21236;BME280;10775;42.678;26.324;2022-12-18T00:35:43;99337.00;;;12.68;90.93
21236;BME280;10775;42.678;26.324;2022-12-18T00:38:08;99334.41;;;12.66;91.72
21236;BME280;10775;42.678;26.324;2022-12-18T00:40:34;99330.09;;;12.64;90.48
21236;BME280;10775;42.678;26.324;2022-12-18T00:42:59;99327.59;;;12.56;89.57
21236;BME280;10775;42.678;26.324;2022-12-18T00:45:30;99327.56;;;12.57;89.56
21236;BME280;10775;42.678;26.324;2022-12-18T00:47:56;99313.59;;;12.57;89.17
21236;BME280;10775;42.678;26.324;2022-12-18T00:50:23;99323.22;;;12.55;88.77
21236;BME280;10775;42.678;26.324;2022-12-18T00:52:49;99329.38;;;12.52;89.36
21236;BME280;10775;42.678;26.324;2022-12-18T00:55:15;99339.81;;;12.57;91.94
21236;BME280;10775;42.678;26.324;2022-12-18T00:57:42;99324.19;;;12.51;92.17
21236;BME280;10775;42.678;26.324;2022-12-18T01:00:10;99324.28;;;12.46;88.63
21236;BME280;10775;42.678;26.324;2022-12-18T01:02:36;99334.75;;;12.48;88.52
21236;BME280;10775;42.678;26.324;2022-12-18T01:05:02;99332.06;;;12.49;89.43
21236;BME280;10775;42.678;26.324;2022-12-18T01:07:27;99332.00;;;12.55;88.02
21236;BME280;10775;42.678;26.324;2022-12-18T01:09:54;99351.16;;;12.57;89.68
21236;BME280;10775;42.678;26.324;2022-12-18T01:12:19;99349.50;;;12.52;90.09
21236;BME280;10775;42.678;26.324;2022-12-18T01:14:45;99363.59;;;12.46;88.98
21236;BME280;10775;42.678;26.324;2022-12-18T01:17:11;99361.81;;;12.48;89.79
21236;BME280;10775;42.678;26.324;2022-12-18T01:19:36;99365.31;;;12.47;91.00
21236;BME280;10775;42.678;26.324;2022-12-18T01:22:02;99365.28;;;12.50;91.41
21236;BME280;10775;42.678;26.324;2022-12-18T01:24:29;99370.56;;;12.47;89.99
21236;BME280;10775;42.678;26.324;2022-12-18T01:26:55;99374.09;;;12.46;90.85
21236;BME280;10775;42.678;26.324;2022-12-18T01:29:23;99368.06;;;12.43;89.76
21236;BME280;10775;42.678;26.324;2022-12-18T01:31:50;99375.94;;;12.39;91.26
21236;BME280;10775;42.678;26.324;2022-12-18T01:34:15;99374.22;;;12.37;91.06
21236;BME280;10775;42.678;26.324;2022-12-18T01:36:41;99379.53;;;12.35;90.43
21236;BME280;10775;42.678;26.324;2022-12-18T01:39:12;99388.06;;;12.48;93.77
21236;BME280;10775;42.678;26.324;2022-12-18T01:41:39;99374.16;;;12.43;90.78
21236;BME280;10775;42.678;26.324;2022-12-18T01:44:59;99386.34;;;12.44;91.61
21236;BME280;10775;42.678;26.324;2022-12-18T01:49:57;99375.94;;;12.39;90.53
21236;BME280;10775;42.678;26.324;2022-12-18T01:52:26;99373.41;;;12.35;90.65
21236;BME280;10775;42.678;26.324;2022-12-18T01:54:54;99373.31;;;12.39;93.60
21236;BME280;10775;42.678;26.324;2022-12-18T01:57:21;99372.41;;;12.42;93.46
21236;BME280;10775;42.678;26.324;2022-12-18T01:59:52;99368.13;;;12.38;90.35
21236;BME280;10775;42.678;26.324;2022-12-18T02:02:19;99354.97;;;12.39;89.07
21236;BME280;10775;42.678;26.324;2022-12-18T02:04:45;99359.41;;;12.34;90.04
21236;BME280;10775;42.678;26.324;2022-12-18T02:07:36;99351.66;;;12.30;92.25
21236;BME280;10775;42.678;26.324;2022-12-18T02:15:44;99351.72;;;12.24;91.47
21236;BME280;10775;42.678;26.324;2022-12-18T02:18:21;99339.53;;;12.23;91.04
21236;BME280;10775;42.678;26.324;2022-12-18T02:29:16;99331.72;;;12.18;91.39
21236;BME280;10775;42.678;26.324;2022-12-18T02:31:49;99334.34;;;12.20;93.35
21236;BME280;10775;42.678;26.324;2022-12-18T02:34:17;99330.16;;;12.08;90.93
21236;BME280;10775;42.678;26.324;2022-12-18T02:36:45;99333.72;;;12.02;92.27
21236;BME280;10775;42.678;26.324;2022-12-18T02:39:12;99337.31;;;11.96;92.38
21236;BME280;10775;42.678;26.324;2022-12-18T02:41:39;99332.16;;;11.90;92.68
21236;BME280;10775;42.678;26.324;2022-12-18T02:44:13;99336.53;;;11.90;91.54
21236;BME280;10775;42.678;26.324;2022-12-18T02:46:49;99338.34;;;11.86;93.57
21236;BME280;10775;42.678;26.324;2022-12-18T02:49:26;99345.25;;;11.92;91.83
21236;BME280;10775;42.678;26.324;2022-12-18T02:52:25;99343.59;;;11.86;90.26
21236;BME280;10775;42.678;26.324;2022-12-18T03:00:41;99347.31;;;11.68;90.44
21236;BME280;10775;42.678;26.324;2022-12-18T03:05:52;99355.22;;;11.64;91.26
21236;BME280;10775;42.678;26.324;2022-12-18T03:08:22;99348.22;;;11.66;90.08
21236;BME280;10775;42.678;26.324;2022-12-18T03:11:08;99350.84;;;11.64;89.71
21236;BME280;10775;42.678;26.324;2022-12-18T03:13:42;99355.16;;;11.68;89.99
21236;BME280;10775;42.678;26.324;2022-12-18T03:16:14;99355.13;;;11.71;92.22
21236;BME280;10775;42.678;26.324;2022-12-18T03:21:22;99370.22;;;11.51;90.74
21236;BME280;10775;42.678;26.324;2022-12-18T03:23:51;99366.72;;;11.52;93.69
21236;BME280;10775;42.678;26.324;2022-12-18T03:26:20;99358.91;;;11.47;91.61
21236;BME280;10775;42.678;26.324;2022-12-18T03:28:54;99360.66;;;11.47;91.20
21236;BME280;10775;42.678;26.324;2022-12-18T03:31:23;99362.31;;;11.52;95.00
21236;BME280;10775;42.678;26.324;2022-12-18T03:33:55;99358.94;;;11.46;93.26
21236;BME280;10775;42.678;26.324;2022-12-18T03:36:21;99365.00;;;11.51;94.10
21236;BME280;10775;42.678;26.324;2022-12-18T03:38:48;99359.81;;;11.45;91.52
21236;BME280;10775;42.678;26.324;2022-12-18T03:44:21;99386.91;;;11.44;94.11
21236;BME280;10775;42.678;26.324;2022-12-18T03:49:38;99380.78;;;11.43;93.91
21236;BME280;10775;42.678;26.324;2022-12-18T03:52:16;99380.00;;;11.38;91.57
21236;BME280;10775;42.678;26.324;2022-12-18T03:54:45;99393.03;;;11.43;93.99
21236;BME280;10775;42.678;26.324;2022-12-18T03:57:19;99406.16;;;11.38;92.47
21236;BME280;10775;42.678;26.324;2022-12-18T03:59:48;99395.69;;;11.38;93.85
21236;BME280;10775;42.678;26.324;2022-12-18T04:02:17;99412.22;;;11.42;90.81
21236;BME280;10775;42.678;26.324;2022-12-18T04:04:45;99414.03;;;11.37;90.28
21236;BME280;10775;42.678;26.324;2022-12-18T04:07:16;99434.06;;;11.39;92.07
21236;BME280;10775;42.678;26.324;2022-12-18T04:09:43;99445.47;;;11.34;94.27
21236;BME280;10775;42.678;26.324;2022-12-18T04:12:11;99438.56;;;11.26;91.99
21236;BME280;10775;42.678;26.324;2022-12-18T04:14:36;99455.13;;;11.30;93.23
21236;BME280;10775;42.678;26.324;2022-12-18T04:17:02;99456.06;;;11.21;91.71
21236;BME280;10775;42.678;26.324;2022-12-18T04:19:28;99456.16;;;11.15;91.79
21236;BME280;10775;42.678;26.324;2022-12-18T04:21:54;99461.31;;;11.21;94.40
21236;BME280;10775;42.678;26.324;2022-12-18T04:24:20;99469.16;;;11.21;93.76
21236;BME280;10775;42.678;26.324;2022-12-18T04:26:45;99469.00;;;11.37;95.68
21236;BME280;10775;42.678;26.324;2022-12-18T04:29:11;99479.53;;;11.32;94.08
21236;BME280;10775;42.678;26.324;2022-12-18T04:31:37;99473.41;;;11.33;94.06
21236;BME280;10775;42.678;26.324;2022-12-18T04:34:03;99468.16;;;11.38;95.27
21236;BME280;10775;42.678;26.324;2022-12-18T04:36:29;99471.69;;;11.29;91.85
21236;BME280;10775;42.678;26.324;2022-12-18T04:38:56;99464.72;;;11.29;94.12
21236;BME280;10775;42.678;26.324;2022-12-18T04:41:22;99476.97;;;11.24;93.48
21236;BME280;10775;42.678;26.324;2022-12-18T04:43:47;99482.25;;;11.23;93.41
21236;BME280;10775;42.678;26.324;2022-12-18T04:46:13;99486.63;;;11.21;94.78
21236;BME280;10775;42.678;26.324;2022-12-18T04:48:39;99473.50;;;11.25;99.79
21236;BME280;10775;42.678;26.324;2022-12-18T04:51:05;99486.63;;;11.22;92.95
21236;BME280;10775;42.678;26.324;2022-12-18T04:53:31;99494.50;;;11.18;95.85
21236;BME280;10775;42.678;26.324;2022-12-18T04:56:08;99497.16;;;11.15;94.66
21236;BME280;10775;42.678;26.324;2022-12-18T04:58:36;99494.56;;;11.12;94.37
21236;BME280;10775;42.678;26.324;2022-12-18T05:01:02;99503.28;;;11.09;95.37
21236;BME280;10775;42.678;26.324;2022-12-18T05:03:29;99503.34;;;11.06;93.70
21236;BME280;10775;42.678;26.324;2022-12-18T05:05:54;99502.50;;;11.01;92.02
21236;BME280;10775;42.678;26.324;2022-12-18T05:08:20;99515.56;;;11.04;94.74
21236;BME280;10775;42.678;26.324;2022-12-18T05:10:45;99512.00;;;11.11;97.45
21236;BME280;10775;42.678;26.324;2022-12-18T05:13:11;99510.38;;;10.99;93.25
21236;BME280;10775;42.678;26.324;2022-12-18T05:15:37;99506.00;;;11.00;95.09
21236;BME280;10775;42.678;26.324;2022-12-18T05:18:03;99522.50;;;11.08;96.12
21236;BME280;10775;42.678;26.324;2022-12-18T05:20:29;99520.84;;;10.99;94.11
21236;BME280;10775;42.678;26.324;2022-12-18T05:22:55;99526.91;;;11.01;93.76
21236;BME280;10775;42.678;26.324;2022-12-18T05:25:22;99517.41;;;10.93;93.26
21236;BME280;10775;42.678;26.324;2022-12-18T05:27:48;99530.50;;;10.94;93.45
21236;BME280;10775;42.678;26.324;2022-12-18T05:30:14;99533.16;;;10.86;92.81
21236;BME280;10775;42.678;26.324;2022-12-18T05:32:40;99526.19;;;10.87;95.77
21236;BME280;10775;42.678;26.324;2022-12-18T05:35:08;99533.97;;;10.93;97.80
21236;BME280;10775;42.678;26.324;2022-12-18T05:37:34;99540.16;;;10.78;92.43
21236;BME280;10775;42.678;26.324;2022-12-18T05:40:00;99541.97;;;10.70;91.83
21236;BME280;10775;42.678;26.324;2022-12-18T05:42:26;99543.72;;;10.74;95.52
21236;BME280;10775;42.678;26.324;2022-12-18T05:44:52;99553.28;;;10.75;92.51
21236;BME280;10775;42.678;26.324;2022-12-18T05:47:17;99553.41;;;10.57;91.84
21236;BME280;10775;42.678;26.324;2022-12-18T05:49:43;99544.66;;;10.64;95.78
21236;BME280;10775;42.678;26.324;2022-12-18T05:52:08;99554.31;;;10.56;91.71
21236;BME280;10775;42.678;26.324;2022-12-18T05:54:34;99562.09;;;10.60;93.81
21236;BME280;10775;42.678;26.324;2022-12-18T05:57:01;99562.97;;;10.59;92.25
21236;BME280;10775;42.678;26.324;2022-12-18T05:59:27;99569.03;;;10.63;94.01
21236;BME280;10775;42.678;26.324;2022-12-18T06:01:52;99575.22;;;10.56;92.18
21236;BME280;10775;42.678;26.324;2022-12-18T06:04:18;99580.47;;;10.50;91.27
21236;BME280;10775;42.678;26.324;2022-12-18T06:06:43;99584.75;;;10.60;94.06
21236;BME280;10775;42.678;26.324;2022-12-18T06:09:09;99579.44;;;10.77;99.51
21236;BME280;10775;42.678;26.324;2022-12-18T06:11:36;99599.50;;;10.73;96.09
21236;BME280;10775;42.678;26.324;2022-12-18T06:14:05;99597.00;;;10.55;90.25
21236;BME280;10775;42.678;26.324;2022-12-18T06:16:32;99605.72;;;10.52;90.69
21236;BME280;10775;42.678;26.324;2022-12-18T06:18:59;99611.78;;;10.63;94.17
21236;BME280;10775;42.678;26.324;2022-12-18T06:21:24;99614.44;;;10.54;89.93
21236;BME280;10775;42.678;26.324;2022-12-18T06:23:50;99617.00;;;10.62;90.74
21236;BME280;10775;42.678;26.324;2022-12-18T06:26:15;99630.16;;;10.48;90.55
21236;BME280;10775;42.678;26.324;2022-12-18T06:28:42;99628.44;;;10.44;90.06
21236;BME280;10775;42.678;26.324;2022-12-18T06:31:09;99631.03;;;10.42;91.23
21236;BME280;10775;42.678;26.324;2022-12-18T06:33:35;99636.25;;;10.53;93.86
21236;BME280;10775;42.678;26.324;2022-12-18T06:36:06;99640.63;;;10.48;89.35
21236;BME280;10775;42.678;26.324;2022-12-18T06:38:33;99657.22;;;10.36;90.02
21236;BME280;10775;42.678;26.324;2022-12-18T06:40:59;99665.06;;;10.30;88.76
21236;BME280;10775;42.678;26.324;2022-12-18T06:43:26;99661.59;;;10.30;89.95
21236;BME280;10775;42.678;26.324;2022-12-18T06:46:03;99672.88;;;10.35;91.64
21236;BME280;10775;42.678;26.324;2022-12-18T06:48:34;99683.31;;;10.49;95.02
21236;BME280;10775;42.678;26.324;2022-12-18T06:51:01;99673.75;;;10.24;89.05
21236;BME280;10775;42.678;26.324;2022-12-18T06:53:26;99658.09;;;10.28;91.20
21236;BME280;10775;42.678;26.324;2022-12-18T06:55:58;99679.00;;;10.38;89.65
21236;BME280;10775;42.678;26.324;2022-12-18T06:58:24;99686.84;;;10.18;88.12
21236;BME280;10775;42.678;26.324;2022-12-18T07:00:50;99683.34;;;10.30;88.64
21236;BME280;10775;42.678;26.324;2022-12-18T07:03:15;99680.78;;;10.13;87.69
21236;BME280;10775;42.678;26.324;2022-12-18T07:05:41;99697.31;;;10.15;87.85
21236;BME280;10775;42.678;26.324;2022-12-18T07:08:06;99703.44;;;10.28;92.91
21236;BME280;10775;42.678;26.324;2022-12-18T07:10:33;99710.38;;;10.31;90.85
21236;BME280;10775;42.678;26.324;2022-12-18T07:12:58;99699.00;;;10.38;89.72
21236;BME280;10775;42.678;26.324;2022-12-18T07:15:24;99701.69;;;10.10;86.90
21236;BME280;10775;42.678;26.324;2022-12-18T07:17:49;99706.03;;;10.16;87.87
21236;BME280;10775;42.678;26.324;2022-12-18T07:20:15;99713.84;;;10.22;91.70
21236;BME280;10775;42.678;26.324;2022-12-18T07:22:41;99715.56;;;10.44;93.31
21236;BME280;10775;42.678;26.324;2022-12-18T07:25:08;99723.41;;;10.41;90.27
21236;BME280;10775;42.678;26.324;2022-12-18T07:27:33;99726.00;;;10.52;89.15
21236;BME280;10775;42.678;26.324;2022-12-18T07:29:59;99732.06;;;10.62;96.06
21236;BME280;10775;42.678;26.324;2022-12-18T07:32:25;99737.31;;;10.57;92.91
21236;BME280;10775;42.678;26.324;2022-12-18T07:34:50;99740.81;;;10.45;86.89
21236;BME280;10775;42.678;26.324;2022-12-18T07:37:16;99746.91;;;10.57;88.40
21236;BME280;10775;42.678;26.324;2022-12-18T07:39:43;99751.28;;;10.52;87.81
21236;BME280;10775;42.678;26.324;2022-12-18T07:42:08;99757.34;;;10.63;90.14
21236;BME280;10775;42.678;26.324;2022-12-18T07:44:52;99765.22;;;10.48;90.57
21236;BME280;10775;42.678;26.324;2022-12-18T07:47:18;99780.06;;;10.42;87.07
21236;BME280;10775;42.678;26.324;2022-12-18T07:49:44;99787.91;;;10.36;89.42
21236;BME280;10775;42.678;26.324;2022-12-18T07:52:09;99795.75;;;10.47;90.92
21236;BME280;10775;42.678;26.324;2022-12-18T07:54:40;99792.25;;;10.23;85.75
21236;BME280;10775;42.678;26.324;2022-12-18T07:57:08;99806.22;;;10.26;89.37
21236;BME280;10775;42.678;26.324;2022-12-18T07:59:35;99811.41;;;10.24;87.41
21236;BME280;10775;42.678;26.324;2022-12-18T08:02:01;99812.28;;;10.01;85.75
21236;BME280;10775;42.678;26.324;2022-12-18T08:04:26;99821.00;;;9.97;85.98
21236;BME280;10775;42.678;26.324;2022-12-18T08:06:52;99819.25;;;9.93;86.14
21236;BME280;10775;42.678;26.324;2022-12-18T08:09:18;99821.00;;;10.04;87.87
21236;BME280;10775;42.678;26.324;2022-12-18T08:11:45;99818.38;;;9.88;85.92
21236;BME280;10775;42.678;26.324;2022-12-18T08:14:10;99824.47;;;9.84;86.75
21236;BME280;10775;42.678;26.324;2022-12-18T08:16:36;99817.53;;;9.98;88.69
21236;BME280;10775;42.678;26.324;2022-12-18T08:19:03;99829.69;;;9.99;86.35
21236;BME280;10775;42.678;26.324;2022-12-18T08:21:31;99832.34;;;9.98;85.98
21236;BME280;10775;42.678;26.324;2022-12-18T08:23:59;99842.78;;;9.98;87.96
21236;BME280;10775;42.678;26.324;2022-12-18T08:26:27;99841.00;;;9.78;88.27
21236;BME280;10775;42.678;26.324;2022-12-18T08:28:56;99848.78;;;9.58;92.04
21236;BME280;10775;42.678;26.324;2022-12-18T08:31:22;99840.97;;;9.60;94.29
21236;BME280;10775;42.678;26.324;2022-12-18T08:33:51;99852.31;;;9.76;98.31
21236;BME280;10775;42.678;26.324;2022-12-18T08:36:18;99851.47;;;9.94;100.00
21236;BME280;10775;42.678;26.324;2022-12-18T08:38:46;99842.75;;;9.92;98.11
21236;BME280;10775;42.678;26.324;2022-12-18T08:41:14;99851.50;;;10.09;100.00
21236;BME280;10775;42.678;26.324;2022-12-18T08:43:40;99849.69;;;9.79;92.73
21236;BME280;10775;42.678;26.324;2022-12-18T08:46:26;99848.88;;;9.98;100.00
21236;BME280;10775;42.678;26.324;2022-12-18T08:48:53;99837.53;;;9.93;91.89
21236;BME280;10775;42.678;26.324;2022-12-18T08:51:25;99836.66;;;9.88;96.72
21236;BME280;10775;42.678;26.324;2022-12-18T08:53:52;99837.56;;;10.06;96.46
21236;BME280;10775;42.678;26.324;2022-12-18T08:56:18;99836.66;;;10.10;99.04
21236;BME280;10775;42.678;26.324;2022-12-18T08:58:45;99844.50;;;10.17;100.00
21236;BME280;10775;42.678;26.324;2022-12-18T09:01:12;99840.16;;;9.96;94.21
21236;BME280;10775;42.678;26.324;2022-12-18T09:03:39;99837.47;;;9.61;86.49
21236;BME280;10775;42.678;26.324;2022-12-18T09:06:05;99838.41;;;9.83;89.08
21236;BME280;10775;42.678;26.324;2022-12-18T09:08:31;99847.16;;;9.97;85.88
21236;BME280;10775;42.678;26.324;2022-12-18T09:10:56;99842.78;;;10.07;92.15
21236;BME280;10775;42.678;26.324;2022-12-18T09:13:23;99846.28;;;10.37;96.33
21236;BME280;10775;42.678;26.324;2022-12-18T09:15:51;99836.69;;;10.40;96.44
21236;BME280;10775;42.678;26.324;2022-12-18T09:18:19;99843.66;;;10.60;99.53
21236;BME280;10775;42.678;26.324;2022-12-18T09:20:45;99833.19;;;10.72;100.00
21236;BME280;10775;42.678;26.324;2022-12-18T09:23:12;99840.19;;;10.61;88.45
21236;BME280;10775;42.678;26.324;2022-12-18T09:25:38;99841.09;;;10.38;87.86
21236;BME280;10775;42.678;26.324;2022-12-18T09:28:12;99843.63;;;10.12;82.94
21236;BME280;10775;42.678;26.324;2022-12-18T09:30:39;99840.16;;;10.12;90.75
21236;BME280;10775;42.678;26.324;2022-12-18T09:33:05;99840.19;;;10.39;97.39
21236;BME280;10775;42.678;26.324;2022-12-18T09:35:31;99852.41;;;10.28;89.05
21236;BME280;10775;42.678;26.324;2022-12-18T09:37:57;99841.94;;;10.13;92.92
21236;BME280;10775;42.678;26.324;2022-12-18T09:40:26;99848.84;;;9.82;87.73
21236;BME280;10775;42.678;26.324;2022-12-18T09:42:57;99849.72;;;10.02;99.29
21236;BME280;10775;42.678;26.324;2022-12-18T09:45:25;99848.88;;;9.95;92.90
21236;BME280;10775;42.678;26.324;2022-12-18T09:47:54;99846.25;;;9.88;95.17
21236;BME280;10775;42.678;26.324;2022-12-18T09:50:31;99845.38;;;9.83;99.66
21236;BME280;10775;42.678;26.324;2022-12-18T09:53:06;99845.34;;;9.64;97.60
21236;BME280;10775;42.678;26.324;2022-12-18T09:55:38;99849.72;;;9.70;100.00
21236;BME280;10775;42.678;26.324;2022-12-18T09:58:30;99858.41;;;9.67;100.00
21236;BME280;10775;42.678;26.324;2022-12-18T10:00:56;99863.53;;;9.36;100.00
21236;BME280;10775;42.678;26.324;2022-12-18T10:03:22;99863.50;;;9.35;100.00
21236;BME280;10775;42.678;26.324;2022-12-18T10:06:07;99868.75;;;9.38;100.00
21236;BME280;10775;42.678;26.324;2022-12-18T10:19:30;99857.38;;;9.25;100.00
21236;BME280;10775;42.678;26.324;2022-12-18T10:25:15;99859.06;;;9.09;100.00
21236;BME280;10775;42.678;26.324;2022-12-18T10:27:42;99850.41;;;9.20;100.00
21236;BME280;10775;42.678;26.324;2022-12-18T10:30:15;99844.38;;;9.31;100.00
21236;BME280;10775;42.678;26.324;2022-12-18T10:32:41;99848.63;;;9.09;96.64
21236;BME280;10775;42.678;26.324;2022-12-18T10:35:15;99841.72;;;9.21;100.00
21236;BME280;10775;42.678;26.324;2022-12-18T10:40:26;99841.84;;;9.51;100.00
21236;BME280;10775;42.678;26.324;2022-12-18T10:43:14;99844.38;;;9.38;95.81
21236;BME280;10775;42.678;26.324;2022-12-18T10:45:42;99859.28;;;9.62;100.00
21236;BME280;10775;42.678;26.324;2022-12-18T10:48:20;99863.63;;;9.64;96.40
21236;BME280;10775;42.678;26.324;2022-12-18T10:50:49;99845.28;;;9.44;91.44
21236;BME280;10775;42.678;26.324;2022-12-18T10:53:22;99857.47;;;9.42;92.93
21236;BME280;10775;42.678;26.324;2022-12-18T10:55:51;99847.09;;;9.73;100.00
21236;BME280;10775;42.678;26.324;2022-12-18T10:58:33;99847.09;;;9.73;100.00
21236;BME280;10775;42.678;26.324;2022-12-18T11:01:14;99849.66;;;9.57;92.63
21236;BME280;10775;42.678;26.324;2022-12-18T11:06:22;99854.00;;;9.48;85.70
21236;BME280;10775;42.678;26.324;2022-12-18T11:09:21;99859.22;;;9.58;86.97
21236;BME280;10775;42.678;26.324;2022-12-18T11:11:52;99856.66;;;9.71;88.02
21236;BME280;10775;42.678;26.324;2022-12-18T11:14:24;99858.31;;;9.38;86.54
21236;BME280;10775;42.678;26.324;2022-12-18T11:16:51;99867.03;;;9.48;85.18
21236;BME280;10775;42.678;26.324;2022-12-18T11:19:33;99860.91;;;9.38;93.45
21236;BME280;10775;42.678;26.324;2022-12-18T11:22:01;99852.16;;;9.22;78.23
21236;BME280;10775;42.678;26.324;2022-12-18T11:24:32;99847.00;;;9.42;86.88
21236;BME280;10775;42.678;26.324;2022-12-18T11:27:04;99848.78;;;9.49;79.27
21236;BME280;10775;42.678;26.324;2022-12-18T11:29:39;99850.59;;;9.75;88.55
21236;BME280;10775;42.678;26.324;2022-12-18T11:34:41;99857.47;;;9.42;79.26
21236;BME280;10775;42.678;26.324;2022-12-18T11:37:11;99859.19;;;9.42;83.01
21236;BME280;10775;42.678;26.324;2022-12-18T11:39:41;99862.72;;;9.51;88.49
21236;BME280;10775;42.678;26.324;2022-12-18T11:42:12;99869.66;;;9.51;79.19
21236;BME280;10775;42.678;26.324;2022-12-18T11:44:51;99877.53;;;9.57;80.54
21236;BME280;10775;42.678;26.324;2022-12-18T11:49:56;99879.19;;;9.40;81.28
21236;BME280;10775;42.678;26.324;2022-12-18T11:52:33;99887.84;;;9.28;76.87
21236;BME280;10775;42.678;26.324;2022-12-18T11:55:28;99893.13;;;9.43;91.30
21236;BME280;10775;42.678;26.324;2022-12-18T11:58:19;99901.72;;;9.16;81.73
21236;BME280;10775;42.678;26.324;2022-12-18T12:01:02;99890.25;;;8.85;84.75
21236;BME280;10775;42.678;26.324;2022-12-18T12:06:49;99904.81;;;8.55;85.65
21236;BME280;10775;42.678;26.324;2022-12-18T12:09:23;99908.28;;;8.56;82.76
21236;BME280;10775;42.678;26.324;2022-12-18T12:15:03;99908.50;;;8.86;83.46
21236;BME280;10775;42.678;26.324;2022-12-18T12:20:22;99913.03;;;9.18;96.24
21236;BME280;10775;42.678;26.324;2022-12-18T12:28:50;99918.47;;;9.64;100.00
21236;BME280;10775;42.678;26.324;2022-12-18T12:31:24;99930.63;;;9.64;100.00
21236;BME280;10775;42.678;26.324;2022-12-18T12:34:17;99933.06;;;9.25;90.56
21236;BME280;10775;42.678;26.324;2022-12-18T12:39:39;99932.34;;;9.54;100.00
21236;BME280;10775;42.678;26.324;2022-12-18T12:42:12;99925.41;;;9.64;100.00
21236;BME280;10775;42.678;26.324;2022-12-18T12:45:00;99937.63;;;9.68;100.00
21236;BME280;10775;42.678;26.324;2022-12-18T12:47:48;99940.06;;;9.35;100.00
21236;BME280;10775;42.678;26.324;2022-12-18T12:50:18;99946.09;;;9.22;100.00
21236;BME280;10775;42.678;26.324;2022-12-18T12:52:52;99950.47;;;9.25;100.00
21236;BME280;10775;42.678;26.324;2022-12-18T12:55:22;99957.47;;;9.35;100.00
21236;BME280;10775;42.678;26.324;2022-12-18T12:58:58;99951.25;;;9.08;100.00
21236;BME280;10775;42.678;26.324;2022-12-18T13:04:08;99967.09;;;9.45;100.00
21236;BME280;10775;42.678;26.324;2022-12-18T13:09:08;99978.44;;;9.49;100.00
21236;BME280;10775;42.678;26.324;2022-12-18T13:11:42;99977.47;;;9.33;100.00
21236;BME280;10775;42.678;26.324;2022-12-18T13:14:35;99979.25;;;9.34;100.00
21236;BME280;10775;42.678;26.324;2022-12-18T13:19:43;99973.09;;;9.26;100.00
21236;BME280;10775;42.678;26.324;2022-12-18T13:25:36;99986.75;;;8.89;100.00
21236;BME280;10775;42.678;26.324;2022-12-18T13:28:06;99998.13;;;8.96;100.00
21236;BME280;10775;42.678;26.324;2022-12-18T13:38:34;99996.56;;;9.21;100.00
21236;BME280;10775;42.678;26.324;2022-12-18T13:43:47;100014.88;;;9.32;100.00
21236;BME280;10775;42.678;26.324;2022-12-18T13:46:44;100026.06;;;9.12;100.00
21236;BME280;10775;42.678;26.324;2022-12-18T13:52:00;100028.59;;;9.00;100.00
21236;BME280;10775;42.678;26.324;2022-12-18T13:54:36;100044.22;;;8.99;100.00
21236;BME280;10775;42.678;26.324;2022-12-18T13:57:04;100043.13;;;8.72;100.00
21236;BME280;10775;42.678;26.324;2022-12-18T13:59:37;100043.91;;;8.63;100.00
21236;BME280;10775;42.678;26.324;2022-12-18T14:02:21;100049.13;;;8.63;100.00
21236;BME280;10775;42.678;26.324;2022-12-18T14:04:49;100041.22;;;8.53;100.00
21236;BME280;10775;42.678;26.324;2022-12-18T14:07:22;100051.69;;;8.57;100.00
21236;BME280;10775;42.678;26.324;2022-12-18T14:09:56;100046.50;;;8.60;100.00
21236;BME280;10775;42.678;26.324;2022-12-18T14:18:23;100066.72;;;8.86;100.00
21236;BME280;10775;42.678;26.324;2022-12-18T14:20:51;100062.31;;;8.79;100.00
21236;BME280;10775;42.678;26.324;2022-12-18T14:23:44;100059.72;;;8.80;100.00
21236;BME280;10775;42.678;26.324;2022-12-18T14:26:28;100054.50;;;8.80;100.00
21236;BME280;10775;42.678;26.324;2022-12-18T14:28:59;100058.00;;;8.84;100.00
21236;BME280;10775;42.678;26.324;2022-12-18T14:31:30;100058.94;;;8.90;100.00
21236;BME280;10775;42.678;26.324;2022-12-18T14:33:57;100057.97;;;8.79;100.00
21236;BME280;10775;42.678;26.324;2022-12-18T14:36:27;100058.81;;;8.77;100.00
21236;BME280;10775;42.678;26.324;2022-12-18T14:38:57;100060.63;;;8.82;100.00
21236;BME280;10775;42.678;26.324;2022-12-18T14:41:24;100065.91;;;8.90;100.00
21236;BME280;10775;42.678;26.324;2022-12-18T14:43:52;100071.97;;;8.87;100.00
21236;BME280;10775;42.678;26.324;2022-12-18T14:46:34;100084.00;;;8.73;100.00
21236;BME280;10775;42.678;26.324;2022-12-18T14:49:19;100076.84;;;8.52;100.00
21236;BME280;10775;42.678;26.324;2022-12-18T14:51:49;100088.63;;;8.21;100.00